Time;durP1;ratioP1;P1;durP2;ratioP2;P2;SDS_P1;SDS_P2;PMS_P1;PMS_P2;Temp;Humidity;BMP_temperature;BMP_pressure;BME280_temperature;BME280_humidity;BME280_pressure;Samples;Min_cycle;Max_cycle;Signal;HPM_P1;HPM_P2
2023/03/15 01:10:17;;;;;;;2.00;1.30;;;;;;;0.66;90.61;95221.78;5007550;28;20206;-84
2023/03/15 01:20:53;;;;;;;3.33;1.50;;;;;;;0.63;90.20;95219.41;4961186;28;20635;-82
2023/03/15 01:23:53;;;;;;;6.77;1.67;;;;;;;0.59;90.49;95229.91;4948297;28;20622;-83
2023/03/15 01:27:21;;;;;;;1.80;1.30;;;;;;;0.60;90.05;95227.25;4969743;28;20231;-82
2023/03/15 01:30:47;;;;;;;6.27;1.30;;;;;;;0.65;89.85;95229.53;4874938;29;20206;-82
2023/03/15 01:33:39;;;;;;;2.47;1.10;;;;;;;0.60;89.74;95229.81;4874858;29;20242;-84
2023/03/15 01:36:19;;;;;;;4.10;1.50;;;;;;;0.62;89.64;95228.00;4837747;29;20225;-82
2023/03/15 01:39:36;;;;;;;2.53;1.20;;;;;;;0.55;89.86;95230.09;4860722;29;20212;-84
2023/03/15 01:42:52;;;;;;;8.10;1.67;;;;;;;0.51;90.00;95230.38;4869083;29;20212;-82
2023/03/15 01:45:57;;;;;;;2.53;2.23;;;;;;;0.52;89.92;95234.56;4837696;29;20230;-82
2023/03/15 01:48:53;;;;;;;3.53;1.50;;;;;;;0.56;89.31;95239.41;4844953;29;20213;-83
2023/03/15 01:51:49;;;;;;;4.27;1.80;;;;;;;0.54;89.98;95253.19;4821927;29;20709;-83
2023/03/15 01:54:26;;;;;;;4.50;1.90;;;;;;;0.62;89.49;95245.88;4830403;29;20262;-82
2023/03/15 02:00:11;;;;;;;5.90;2.03;;;;;;;0.65;89.20;95237.22;4879426;29;20203;-83
2023/03/15 02:02:52;;;;;;;8.27;2.13;;;;;;;0.47;89.15;95242.53;4879963;29;20207;-83
2023/03/15 02:05:53;;;;;;;5.37;1.87;;;;;;;0.48;89.35;95248.47;4878012;29;20257;-82
2023/03/15 02:08:45;;;;;;;6.70;2.00;;;;;;;0.52;89.04;95253.28;4877426;29;20691;-84
2023/03/15 02:14:41;;;;;;;5.60;1.97;;;;;;;0.47;88.79;95262.16;4875812;29;20286;-83
2023/03/15 02:17:54;;;;;;;6.13;2.60;;;;;;;0.47;88.53;95251.94;4880208;29;20229;-84
2023/03/15 02:24:13;;;;;;;7.33;2.73;;;;;;;0.52;87.58;95258.38;4994275;28;20195;-83
2023/03/15 02:27:06;;;;;;;5.00;3.07;;;;;;;0.52;88.06;95265.22;5010561;28;20331;-82
2023/03/15 02:29:46;;;;;;;4.50;2.40;;;;;;;0.42;87.76;95261.59;5008750;28;20217;-84
2023/03/15 02:32:17;;;;;;;8.77;2.60;;;;;;;0.28;88.48;95265.81;4981558;28;20179;-83
2023/03/15 02:35:29;;;;;;;5.83;2.37;;;;;;;0.45;87.82;95279.31;4985711;28;20200;-83
2023/03/15 03:50:28;;;;;;;5.57;3.63;;;;;;;0.01;88.94;95400.22;5011639;28;20581;-84
2023/03/15 03:53:25;;;;;;;4.93;2.70;;;;;;;-0.16;89.00;95400.34;4998480;28;20205;-88
2023/03/15 03:55:56;;;;;;;6.17;2.63;;;;;;;-0.31;88.54;95399.47;5007957;28;20241;-84
2023/03/15 03:59:06;;;;;;;9.03;2.50;;;;;;;-0.21;88.04;95407.44;4975600;28;20297;-86
2023/03/15 04:01:40;;;;;;;6.87;3.30;;;;;;;-0.21;87.92;95410.81;4983293;28;20230;-86
2023/03/15 04:04:25;;;;;;;10.97;2.90;;;;;;;-0.23;87.64;95411.81;4979814;28;20186;-85
2023/03/15 04:07:01;;;;;;;5.73;2.50;;;;;;;-0.22;87.90;95416.00;4975246;28;20222;-86
2023/03/15 04:09:53;;;;;;;5.03;2.63;;;;;;;-0.14;87.46;95421.50;4989623;28;20191;-86
2023/03/15 04:12:35;;;;;;;6.63;3.37;;;;;;;-0.29;87.46;95424.00;4981914;28;20184;-86
2023/03/15 04:15:09;;;;;;;9.43;2.60;;;;;;;-0.33;88.07;95425.09;4966085;28;20216;-86
2023/03/15 04:18:07;;;;;;;7.17;2.63;;;;;;;-0.38;88.09;95427.06;4995306;28;20219;-87
2023/03/15 04:20:47;;;;;;;7.90;2.60;;;;;;;-0.40;88.11;95433.97;4940305;28;20204;-87
2023/03/15 04:23:48;;;;;;;7.10;3.17;;;;;;;-0.41;87.78;95434.06;4921080;28;20200;-86
2023/03/15 04:27:05;;;;;;;5.03;2.70;;;;;;;-0.48;88.26;95440.41;4933672;28;20223;-86
2023/03/15 04:55:02;;;;;;;;;;;;;;;;;;;;;
2023/03/15 05:56:08;;;;;;;10.50;3.13;;;;;;;-0.83;88.03;95472.88;4943911;28;20233;-80
2023/03/15 06:10:18;;;;;;;;;;;;;;;;;;;;;
2023/03/15 06:24:11;;;;;;;8.33;2.87;;;;;;;-0.40;83.55;95490.09;5839923;22;20650;-77
2023/03/15 06:27:06;;;;;;;10.73;2.73;;;;;;;-0.39;84.05;95484.09;4981782;28;20237;-87
2023/03/15 07:21:07;;;;;;;;;;;;;;;;;;;;;
2023/03/15 07:24:02;;;;;;;5.33;1.87;;;;;;;0.87;79.88;95546.00;4617640;23;36877496;-80
2023/03/15 07:26:39;;;;;;;5.57;2.37;;;;;;;1.09;79.86;95543.84;6182291;23;20196;-83
2023/03/15 07:29:40;;;;;;;4.43;1.90;;;;;;;1.19;78.41;95541.56;6170428;23;20169;-82
2023/03/15 07:42:26;;;;;;;4.67;1.63;;;;;;;1.58;75.13;95551.16;5984189;23;20163;-80
2023/03/15 07:44:51;;;;;;;8.40;2.13;;;;;;;1.55;74.62;95553.91;5992977;24;20165;-79
2023/03/15 07:47:19;;;;;;;4.80;1.60;;;;;;;1.62;74.92;95556.00;5993291;24;20189;-81
2023/03/15 07:49:45;;;;;;;5.27;1.70;;;;;;;1.86;73.32;95547.75;5947150;24;20250;-82
2023/03/15 07:52:11;;;;;;;5.43;1.70;;;;;;;1.74;72.53;95551.84;5945581;24;20827;-81
2023/03/15 07:54:37;;;;;;;7.67;1.97;;;;;;;1.79;71.98;95547.28;5944550;24;20166;-82
2023/03/15 07:57:03;;;;;;;3.67;1.70;;;;;;;2.09;71.80;95556.53;5992627;23;20215;-82
2023/03/15 07:59:28;;;;;;;6.03;1.77;;;;;;;2.11;69.94;95552.13;5946730;24;20233;-83
2023/03/15 08:01:54;;;;;;;4.00;1.70;;;;;;;2.12;70.15;95558.91;5947677;24;20167;-82
2023/03/15 08:04:20;;;;;;;6.20;2.53;;;;;;;2.42;70.23;95551.84;5949471;24;20167;-84
2023/03/15 08:06:45;;;;;;;8.37;2.60;;;;;;;2.41;70.69;95560.47;5950405;24;20183;-84
2023/03/15 08:09:11;;;;;;;5.50;1.77;;;;;;;2.68;68.64;95557.88;5962916;23;20170;-83
2023/03/15 08:11:37;;;;;;;6.70;1.90;;;;;;;2.83;68.19;95558.63;5974223;23;20163;-84
2023/03/15 08:14:02;;;;;;;5.50;2.10;;;;;;;2.83;65.99;95566.31;6018074;23;20161;-82
2023/03/15 08:16:28;;;;;;;3.87;1.50;;;;;;;3.08;66.12;95563.75;6110212;23;20178;-83
2023/03/15 08:18:53;;;;;;;4.73;1.47;;;;;;;3.09;64.56;95567.16;6169459;23;20181;-82
2023/03/15 08:21:20;;;;;;;4.60;1.57;;;;;;;3.20;62.20;95571.59;6192457;23;20170;-83
2023/03/15 08:23:45;;;;;;;5.00;1.37;;;;;;;3.64;62.79;95574.53;6167149;23;20493;-83
2023/03/15 08:26:11;;;;;;;5.23;1.27;;;;;;;3.78;61.90;95568.44;6165419;23;20237;-84
2023/03/15 08:28:36;;;;;;;6.63;1.30;;;;;;;4.09;61.03;95569.72;6165634;23;20154;-82
2023/03/15 08:31:06;;;;;;;4.00;1.30;;;;;;;4.40;60.40;95578.63;6166980;23;20673;-82
2023/03/15 08:33:31;;;;;;;4.20;1.50;;;;;;;4.19;59.19;95575.84;6192370;23;20155;-81
2023/03/15 08:35:57;;;;;;;6.70;1.57;;;;;;;4.15;58.66;95576.16;6190328;23;20268;-82
2023/03/15 08:38:24;;;;;;;2.80;1.23;;;;;;;4.26;58.88;95571.94;6164948;23;20673;-83
2023/03/15 08:40:54;;;;;;;5.17;1.20;;;;;;;4.05;58.22;95572.59;6167126;23;20195;-83
2023/03/15 08:43:20;;;;;;;5.43;1.50;;;;;;;3.79;56.93;95575.22;6166420;23;20144;-82
2023/03/15 08:45:53;;;;;;;2.13;1.13;;;;;;;4.04;56.23;95571.78;6188997;23;20164;-82
2023/03/15 08:48:20;;;;;;;4.90;1.30;;;;;;;4.04;57.18;95576.91;6166521;23;20680;-83
2023/03/15 08:50:46;;;;;;;5.97;1.90;;;;;;;3.70;56.56;95579.25;6192771;23;20165;-83
2023/03/15 08:53:14;;;;;;;4.53;1.93;;;;;;;3.59;57.73;95581.72;6166335;23;20147;-83
2023/03/15 08:55:40;;;;;;;4.27;1.30;;;;;;;3.58;57.06;95585.22;6164878;23;20174;-83
2023/03/15 08:58:08;;;;;;;5.43;2.17;;;;;;;3.79;57.04;95588.06;6166274;23;20147;-82
2023/03/15 09:00:33;;;;;;;4.03;1.63;;;;;;;3.88;55.79;95586.59;6166854;23;20267;-83
2023/03/15 09:02:58;;;;;;;6.83;2.70;;;;;;;3.93;56.88;95594.84;6190148;23;20201;-83
2023/03/15 09:05:24;;;;;;;7.07;1.70;;;;;;;3.94;56.06;95591.34;6187700;23;20364;-83
2023/03/15 09:07:51;;;;;;;5.70;1.57;;;;;;;3.95;56.50;95596.38;6160993;23;20174;-81
2023/03/15 09:10:30;;;;;;;7.13;1.67;;;;;;;4.38;55.41;95593.38;6164959;23;20157;-84
2023/03/15 09:12:55;;;;;;;6.17;1.27;;;;;;;4.37;54.53;95608.91;6164855;23;20209;-84
2023/03/15 09:15:21;;;;;;;7.07;1.27;;;;;;;4.45;53.57;95607.44;6163154;23;20166;-84
2023/03/15 09:18:02;;;;;;;;;;;;;;;;;;;;;
2023/03/15 09:20:35;;;;;;;2.87;1.17;;;;;;;4.96;54.08;95611.53;6198847;23;20205;-85
2023/03/15 09:23:06;;;;;;;4.50;1.83;;;;;;;4.91;54.62;95613.59;6182528;23;20193;-85
2023/03/15 09:25:32;;;;;;;5.50;1.30;;;;;;;5.02;53.26;95605.91;6149008;23;20619;-84
2023/03/15 09:28:00;;;;;;;5.53;1.00;;;;;;;5.07;51.00;95619.28;6165714;23;20249;-86
2023/03/15 09:30:27;;;;;;;4.97;1.00;;;;;;;4.63;51.73;95617.34;6139900;23;20164;-84
2023/03/15 09:32:55;;;;;;;6.93;1.13;;;;;;;4.52;50.36;95615.53;6133402;23;20157;-84
2023/03/15 09:35:23;;;;;;;1.97;1.00;;;;;;;5.25;51.51;95623.06;6107198;23;20239;-83
2023/03/15 09:37:53;;;;;;;2.43;0.93;;;;;;;4.96;51.12;95608.94;6108973;23;20185;-85
2023/03/15 09:40:46;;;;;;;;;;;;;;;;;;;;;
2023/03/15 09:47:02;;;;;;;4.83;1.63;;;;;;;5.72;50.42;95621.25;6066658;23;20252;-83
2023/03/15 09:50:15;;;;;;;4.87;1.27;;;;;;;5.38;49.28;95623.78;6041473;23;20157;-83
2023/03/15 09:52:50;;;;;;;3.73;1.00;;;;;;;5.43;50.46;95631.19;5928559;24;20212;-82
2023/03/15 09:55:49;;;;;;;4.53;1.30;;;;;;;5.57;50.22;95627.59;5929648;24;20155;-82
2023/03/15 09:58:34;;;;;;;6.20;1.00;;;;;;;5.33;50.16;95631.06;5931974;24;21042;-81
2023/03/15 10:01:15;;;;;;;;;;;;;;;;;;;;;
2023/03/15 10:04:20;;;;;;;5.97;1.17;;;;;;;5.00;50.27;95633.50;5931592;24;20222;-82
2023/03/15 10:07:15;;;;;;;5.93;1.53;;;;;;;5.24;50.87;95628.34;5931150;24;20195;-82
2023/03/15 10:14:11;;;;;;;2.23;1.10;;;;;;;5.59;50.17;95629.09;5871247;24;20223;-82
2023/03/15 10:17:18;;;;;;;;;;;;;;;;;;;;;
2023/03/15 10:20:20;;;;;;;2.90;1.27;;;;;;;5.79;49.97;95624.19;5795896;24;20255;-82
2023/03/15 10:23:36;;;;;;;2.93;1.00;;;;;;;6.02;49.22;95640.53;5775247;24;20181;-82
2023/03/15 10:29:25;;;;;;;2.53;0.93;;;;;;;6.12;49.51;95646.63;5795613;24;20229;-82
2023/03/15 10:31:54;;;;;;;2.97;0.97;;;;;;;6.23;48.66;95636.28;5845779;24;20244;-82
2023/03/15 10:34:21;;;;;;;1.60;0.80;;;;;;;6.23;49.27;95637.09;5819687;24;20173;-82
2023/03/15 10:37:08;;;;;;;2.00;0.80;;;;;;;6.22;48.27;95644.97;5843720;24;20186;-82
2023/03/15 10:39:33;;;;;;;4.83;1.30;;;;;;;5.92;50.26;95640.41;5802753;24;20198;-82
2023/03/15 10:42:08;;;;;;;4.70;1.47;;;;;;;6.02;49.74;95632.81;5820593;24;20167;-81
2023/03/15 10:44:35;;;;;;;3.10;1.53;;;;;;;5.99;50.07;95639.00;5820319;24;20162;-82
2023/03/15 10:47:10;;;;;;;2.47;1.10;;;;;;;6.34;49.07;95646.59;5819674;24;20209;-82
2023/03/15 10:49:37;;;;;;;5.47;1.30;;;;;;;5.75;50.30;95640.84;5884806;24;20667;-81
2023/03/15 10:52:03;;;;;;;3.17;0.70;;;;;;;5.68;50.35;95645.63;5904861;24;20564;-81
2023/03/15 10:54:31;;;;;;;1.40;0.90;;;;;;;5.83;50.84;95649.63;5928977;24;20160;-82
2023/03/15 10:57:03;;;;;;;6.10;1.27;;;;;;;5.82;50.24;95650.53;5975569;23;20261;-81
2023/03/15 10:59:31;;;;;;;2.13;0.80;;;;;;;5.69;50.08;95649.84;6016259;23;20263;-82
2023/03/15 11:02:12;;;;;;;1.77;0.80;;;;;;;5.83;50.88;95644.47;6124756;23;20672;-82
2023/03/15 11:04:42;;;;;;;3.07;1.07;;;;;;;5.55;50.54;95639.75;6153668;23;20181;-82
2023/03/15 11:07:09;;;;;;;3.60;1.07;;;;;;;5.58;51.24;95644.69;6152414;23;20175;-82
2023/03/15 11:09:43;;;;;;;2.47;1.10;;;;;;;5.61;51.43;95647.03;6151055;23;20621;-82
2023/03/15 11:12:20;;;;;;;1.77;1.00;;;;;;;5.24;51.92;95652.31;6126812;23;20154;-82
2023/03/15 11:14:49;;;;;;;2.60;0.93;;;;;;;5.02;52.55;95647.09;6127880;23;20158;-82
2023/03/15 11:17:18;;;;;;;5.37;1.00;;;;;;;4.99;52.74;95647.31;6152142;23;20182;-83
2023/03/15 11:19:51;;;;;;;2.00;1.17;;;;;;;4.50;53.35;95650.81;6126728;23;20190;-83
2023/03/15 11:22:16;;;;;;;3.83;1.10;;;;;;;4.94;54.19;95657.13;6126869;23;20631;-83
2023/03/15 11:24:41;;;;;;;3.33;1.43;;;;;;;4.95;54.12;95645.91;6125755;23;20175;-83
2023/03/15 11:27:15;;;;;;;2.43;1.13;;;;;;;5.01;54.51;95650.59;6125813;23;20216;-82
2023/03/15 11:29:48;;;;;;;3.27;1.57;;;;;;;5.03;54.92;95649.53;6126022;23;20180;-82
2023/03/15 11:32:20;;;;;;;2.07;1.30;;;;;;;5.24;54.55;95657.47;6126433;23;20226;-82
2023/03/15 11:34:59;;;;;;;3.57;1.80;;;;;;;5.37;54.67;95665.94;6126040;23;20155;-81
2023/03/15 11:37:33;;;;;;;3.60;1.00;;;;;;;5.60;54.75;95653.13;6127265;23;20196;-82
2023/03/15 11:40:19;;;;;;;4.53;1.30;;;;;;;5.79;54.05;95655.94;6151411;23;20175;-82
2023/03/15 11:42:57;;;;;;;3.07;0.90;;;;;;;5.99;54.41;95653.63;6151065;23;20250;-82
2023/03/15 11:45:42;;;;;;;2.33;1.10;;;;;;;6.06;52.95;95650.47;6123410;23;20177;-82
2023/03/15 11:48:17;;;;;;;2.93;1.10;;;;;;;5.88;54.30;95655.25;6131761;23;20154;-80
2023/03/15 11:50:43;;;;;;;2.37;1.53;;;;;;;5.61;54.09;95649.59;6130857;23;20154;-80
2023/03/15 11:53:11;;;;;;;1.03;0.93;;;;;;;5.64;54.52;95655.31;6156638;23;20201;-82
2023/03/15 11:55:36;;;;;;;3.30;1.40;;;;;;;5.41;55.05;95651.09;6133458;23;20217;-82
2023/03/15 11:58:34;;;;;;;5.00;1.40;;;;;;;5.30;55.87;95658.75;6155388;23;20542;-82
2023/03/15 12:01:02;;;;;;;2.17;0.90;;;;;;;5.08;55.88;95644.91;6128506;23;20186;-81
2023/03/15 12:03:38;;;;;;;3.07;1.40;;;;;;;4.91;56.04;95640.16;6155564;23;20159;-82
2023/03/15 12:06:33;;;;;;;2.77;1.43;;;;;;;4.96;56.13;95645.78;6154846;23;20265;-82
2023/03/15 12:09:00;;;;;;;2.30;1.00;;;;;;;5.11;56.13;95643.84;6152348;23;20561;-81
2023/03/15 12:11:25;;;;;;;4.07;1.30;;;;;;;5.08;57.18;95646.66;6153964;23;20169;-81
2023/03/15 12:14:03;;;;;;;2.80;1.40;;;;;;;4.90;56.61;95651.38;6154800;23;20155;-81
2023/03/15 12:16:41;;;;;;;2.83;1.33;;;;;;;4.82;57.55;95666.53;6128537;23;20181;-80
2023/03/15 12:19:14;;;;;;;3.13;1.40;;;;;;;4.65;59.33;95664.34;6129934;23;20634;-80
2023/03/15 12:21:43;;;;;;;6.20;1.57;;;;;;;4.29;61.25;95666.00;6154082;23;20150;-81
2023/03/15 12:24:24;;;;;;;3.43;1.10;;;;;;;4.26;62.76;95669.59;6130137;23;20260;-82
2023/03/15 12:26:57;;;;;;;1.97;1.30;;;;;;;4.19;62.56;95670.94;6153578;23;20181;-81
2023/03/15 12:29:25;;;;;;;3.63;1.50;;;;;;;4.22;63.82;95667.34;6156924;23;20224;-81
2023/03/15 12:31:52;;;;;;;3.20;1.40;;;;;;;4.34;64.00;95675.97;6130320;23;20158;-80
2023/03/15 12:34:49;;;;;;;2.83;1.20;;;;;;;4.29;65.28;95676.28;6155537;23;20573;-80
2023/03/15 12:37:27;;;;;;;1.87;1.50;;;;;;;4.50;66.87;95667.06;6137712;23;20585;-79
2023/03/15 12:40:14;;;;;;;2.83;1.27;;;;;;;4.54;65.78;95663.34;6128678;23;20193;-80
2023/03/15 12:42:39;;;;;;;2.60;1.20;;;;;;;4.69;65.40;95658.06;6154846;23;20151;-81
2023/03/15 12:45:16;;;;;;;4.33;1.10;;;;;;;4.79;65.37;95659.06;6153790;23;20200;-81
2023/03/15 12:47:46;;;;;;;4.37;1.47;;;;;;;4.66;66.31;95668.56;6150540;23;20629;-80
2023/03/15 12:50:42;;;;;;;2.43;1.40;;;;;;;4.66;66.37;95671.94;6154546;23;20139;-82
2023/03/15 12:53:37;;;;;;;6.50;3.03;;;;;;;4.50;67.97;95690.19;6145604;23;20172;-82
2023/03/15 12:56:17;;;;;;;4.50;1.83;;;;;;;4.14;69.08;95679.91;6147087;23;20183;-81
2023/03/15 12:58:45;;;;;;;1.87;1.33;;;;;;;3.84;70.42;95677.66;6149451;23;20173;-81
2023/03/15 13:01:14;;;;;;;2.20;1.70;;;;;;;3.54;73.57;95688.25;6149649;23;20699;-81
2023/03/15 13:03:41;;;;;;;4.23;2.20;;;;;;;3.55;75.01;95693.28;6149668;23;20245;-81
2023/03/15 13:06:14;;;;;;;3.27;1.60;;;;;;;3.37;77.02;95695.31;6124918;23;20175;-81
2023/03/15 13:08:46;;;;;;;3.73;2.67;;;;;;;3.23;78.51;95690.25;6149175;23;20151;-81
2023/03/15 13:11:19;;;;;;;3.50;2.70;;;;;;;3.25;79.17;95693.53;6126018;23;20152;-83
2023/03/15 13:14:06;;;;;;;4.20;2.57;;;;;;;3.08;80.29;95693.78;6124233;23;20163;-82
2023/03/15 13:16:43;;;;;;;10.83;7.57;;;;;;;3.03;80.86;95696.66;6152224;23;20662;-82
2023/03/15 13:19:24;;;;;;;10.43;4.83;;;;;;;3.09;81.36;95698.84;6126295;23;20542;-82
2023/03/15 13:22:19;;;;;;;5.63;3.27;;;;;;;3.01;82.06;95692.56;6129035;23;20297;-82
2023/03/15 13:25:03;;;;;;;5.13;3.47;;;;;;;2.92;83.35;95688.03;6152894;23;20507;-83
2023/03/15 13:27:34;;;;;;;5.30;4.73;;;;;;;3.03;83.64;95686.41;6154272;23;20178;-83
2023/03/15 13:30:06;;;;;;;9.20;6.43;;;;;;;2.98;83.97;95690.19;6155891;23;20140;-82
2023/03/15 13:32:31;;;;;;;8.27;4.73;;;;;;;3.06;84.01;95686.19;6152627;23;20159;-82
2023/03/15 13:34:57;;;;;;;6.93;5.00;;;;;;;3.23;83.58;95679.16;6127324;23;20167;-81
2023/03/15 13:37:24;;;;;;;9.83;7.63;;;;;;;3.48;83.10;95681.78;6127454;23;20183;-82
2023/03/15 13:40:00;;;;;;;12.67;9.37;;;;;;;3.75;82.75;95676.53;6128355;23;20217;-82
2023/03/15 13:42:25;;;;;;;28.70;14.73;;;;;;;3.83;82.72;95676.03;6153729;23;20159;-81
2023/03/15 13:45:17;;;;;;;13.77;7.23;;;;;;;4.05;81.63;95668.50;6129308;23;20213;-82
2023/03/15 13:47:44;;;;;;;23.20;14.47;;;;;;;4.21;80.77;95663.94;6125716;23;20528;-83
2023/03/15 13:50:16;;;;;;;6.43;4.03;;;;;;;4.22;81.78;95660.44;6129985;23;20593;-82
2023/03/15 13:52:42;;;;;;;3.23;2.70;;;;;;;4.54;81.04;95658.22;6130051;23;20159;-82
2023/03/15 13:55:11;;;;;;;2.83;2.10;;;;;;;4.67;80.19;95654.75;6153379;23;20493;-82
2023/03/15 13:57:36;;;;;;;4.70;1.50;;;;;;;4.80;78.96;95656.38;6129404;23;20189;-81
2023/03/15 14:00:10;;;;;;;2.30;1.43;;;;;;;4.65;79.16;95654.06;6153160;23;20638;-81
2023/03/15 14:02:42;;;;;;;6.47;3.00;;;;;;;4.03;79.74;95654.13;6152987;23;20619;-82
2023/03/15 14:05:10;;;;;;;6.17;3.57;;;;;;;4.78;78.96;95649.69;6154129;23;20158;-82
2023/03/15 14:07:42;;;;;;;8.80;4.70;;;;;;;5.02;77.82;95653.06;6152488;23;20182;-83
2023/03/15 14:10:17;;;;;;;29.93;12.63;;;;;;;4.33;79.56;95643.44;6128300;23;20153;-82
2023/03/15 14:12:46;;;;;;;9.83;5.50;;;;;;;4.89;79.53;95647.16;6152156;23;20253;-82
2023/03/15 14:15:24;;;;;;;4.97;2.83;;;;;;;5.21;77.87;95641.41;6128418;23;20158;-83
2023/03/15 14:18:01;;;;;;;6.50;3.57;;;;;;;5.38;78.21;95649.53;6127322;23;20225;-82
2023/03/15 14:20:39;;;;;;;4.97;3.20;;;;;;;5.58;77.69;95655.00;6128146;23;20312;-83
2023/03/15 14:23:09;;;;;;;4.23;2.10;;;;;;;5.37;77.14;95655.63;6152565;23;20146;-82
2023/03/15 14:25:35;;;;;;;3.90;2.50;;;;;;;5.44;76.72;95653.44;6152446;23;20167;-83
2023/03/15 14:28:01;;;;;;;6.60;3.87;;;;;;;5.09;77.84;95656.00;6127723;23;20188;-82
2023/03/15 14:30:28;;;;;;;5.03;2.73;;;;;;;4.95;77.07;95657.03;6152994;23;20150;-82
2023/03/15 14:32:57;;;;;;;3.87;2.37;;;;;;;4.66;78.94;95656.50;6127169;23;20165;-81
2023/03/15 14:35:30;;;;;;;3.53;2.30;;;;;;;4.81;79.03;95660.56;6126757;23;20154;-82
2023/03/15 14:38:24;;;;;;;14.03;9.27;;;;;;;4.53;79.37;95673.75;6126897;23;20568;-79
2023/03/15 14:40:51;;;;;;;8.63;6.20;;;;;;;4.45;80.50;95681.19;6127467;23;20258;-83
2023/03/15 14:43:16;;;;;;;6.33;4.03;;;;;;;4.28;81.67;95678.97;6152397;23;20146;-83
2023/03/15 14:45:44;;;;;;;3.60;2.43;;;;;;;4.05;83.20;95686.50;6126186;23;20163;-82
2023/03/15 14:48:29;;;;;;;3.23;1.80;;;;;;;4.02;83.23;95694.41;6126709;23;20147;-82
2023/03/15 14:50:54;;;;;;;1.80;1.70;;;;;;;3.32;86.47;95691.41;6127036;23;20158;-82
2023/03/15 14:53:22;;;;;;;3.03;1.50;;;;;;;2.83;88.22;95694.56;6126637;23;20159;-81
2023/03/15 14:55:47;;;;;;;2.10;1.60;;;;;;;2.93;88.39;95698.19;6127027;23;20168;-82
2023/03/15 14:58:16;;;;;;;3.87;2.80;;;;;;;2.89;88.83;95699.28;6152038;23;20175;-81
2023/03/15 15:00:42;;;;;;;2.27;2.07;;;;;;;3.00;87.73;95693.47;6126973;23;20184;-80
2023/03/15 15:03:16;;;;;;;6.70;3.97;;;;;;;2.87;88.05;95695.19;6151571;23;20163;-81
2023/03/15 15:05:41;;;;;;;2.57;2.30;;;;;;;2.87;88.38;95692.59;6150609;23;20200;-82
2023/03/15 15:08:11;;;;;;;6.60;4.50;;;;;;;2.81;88.50;95702.31;6127371;23;20190;-82
2023/03/15 15:10:37;;;;;;;8.07;5.40;;;;;;;2.82;88.44;95693.72;6126710;23;20155;-81
2023/03/15 15:13:02;;;;;;;5.13;4.43;;;;;;;2.66;87.79;95697.34;6126154;23;20271;-82
2023/03/15 15:15:28;;;;;;;4.43;2.53;;;;;;;2.65;89.33;95704.22;6151100;23;20155;-82
2023/03/15 15:17:53;;;;;;;4.00;2.90;;;;;;;2.59;89.18;95707.16;6151842;23;20179;-82
2023/03/15 15:20:19;;;;;;;5.57;4.63;;;;;;;2.79;88.16;95704.16;6126906;23;20185;-82
2023/03/15 15:22:45;;;;;;;2.73;2.37;;;;;;;2.85;87.84;95708.09;6128847;23;20155;-81
2023/03/15 15:25:23;;;;;;;1.63;1.53;;;;;;;2.81;87.62;95712.59;6128169;23;20177;-82
2023/03/15 15:27:49;;;;;;;2.13;1.90;;;;;;;2.65;87.77;95700.81;6129031;23;20179;-81
2023/03/15 15:30:18;;;;;;;2.70;1.90;;;;;;;2.67;87.55;95709.25;6153240;23;20210;-82
2023/03/15 15:32:43;;;;;;;3.63;2.30;;;;;;;2.59;87.93;95708.91;6130064;23;20155;-82
2023/03/15 15:35:12;;;;;;;2.73;1.80;;;;;;;2.63;88.40;95703.47;6154470;23;20210;-82
2023/03/15 15:37:37;;;;;;;5.57;3.43;;;;;;;2.81;88.00;95702.31;6155442;23;20182;-81
2023/03/15 15:40:07;;;;;;;3.67;2.53;;;;;;;2.80;88.07;95699.88;6154154;23;20183;-83
2023/03/15 15:42:32;;;;;;;2.53;2.33;;;;;;;2.82;87.35;95703.16;6128691;23;20238;-81
2023/03/15 15:44:58;;;;;;;4.33;1.70;;;;;;;2.80;87.51;95698.13;6128345;23;20233;-83
2023/03/15 15:47:23;;;;;;;2.60;1.90;;;;;;;2.93;86.76;95703.31;6129932;23;20175;-83
2023/03/15 15:49:48;;;;;;;2.97;2.10;;;;;;;2.95;86.89;95704.03;6154308;23;20207;-83
2023/03/15 15:52:14;;;;;;;2.40;2.20;;;;;;;3.06;86.61;95706.72;6130310;23;20159;-83
2023/03/15 15:54:39;;;;;;;2.40;2.00;;;;;;;3.07;86.73;95712.69;6129108;23;20562;-81
2023/03/15 15:57:05;;;;;;;3.00;2.20;;;;;;;3.03;86.60;95719.75;6154227;23;20648;-82
2023/03/15 15:59:30;;;;;;;3.63;3.20;;;;;;;3.00;86.90;95725.06;6155077;23;20516;-83
2023/03/15 16:01:55;;;;;;;5.00;2.80;;;;;;;2.95;87.42;95724.56;6130342;23;20169;-81
2023/03/15 16:04:21;;;;;;;3.77;3.00;;;;;;;2.88;87.88;95736.13;6130198;23;20155;-82
2023/03/15 16:06:50;;;;;;;3.00;2.70;;;;;;;2.94;87.60;95727.22;6130289;23;20179;-82
2023/03/15 16:09:17;;;;;;;3.00;2.63;;;;;;;3.09;87.06;95734.78;6130355;23;20159;-83
2023/03/15 16:11:43;;;;;;;2.77;2.47;;;;;;;2.91;87.98;95727.38;6129961;23;20159;-81
2023/03/15 16:14:11;;;;;;;8.17;3.00;;;;;;;2.91;87.58;95727.38;6155102;23;20609;-81
2023/03/15 16:16:36;;;;;;;7.80;4.53;;;;;;;2.91;88.25;95728.22;6129909;23;20183;-81
2023/03/15 16:19:02;;;;;;;5.80;3.50;;;;;;;2.88;87.39;95730.16;6155103;23;20163;-82
2023/03/15 16:21:42;;;;;;;4.30;3.60;;;;;;;2.96;87.54;95731.31;6130029;23;20302;-81
2023/03/15 16:24:14;;;;;;;5.70;2.70;;;;;;;2.76;88.17;95737.72;6154738;23;20163;-82
2023/03/15 16:26:40;;;;;;;7.03;5.87;;;;;;;3.04;88.13;95741.94;6128819;23;20176;-82
2023/03/15 16:29:26;;;;;;;14.30;9.00;;;;;;;3.19;87.30;95736.75;6153691;23;20155;-82
2023/03/15 16:31:51;;;;;;;5.83;4.13;;;;;;;3.02;86.89;95741.22;6153215;23;20143;-82
2023/03/15 16:34:17;;;;;;;7.67;5.00;;;;;;;3.12;86.42;95734.56;6129983;23;20148;-80
2023/03/15 16:36:45;;;;;;;15.07;9.13;;;;;;;3.17;86.02;95748.84;6129254;23;20182;-80
2023/03/15 16:39:12;;;;;;;12.27;6.37;;;;;;;3.10;85.31;95744.13;6130159;23;20155;-81
2023/03/15 16:41:38;;;;;;;4.47;3.00;;;;;;;3.02;85.01;95741.22;6129876;23;20183;-82
2023/03/15 16:44:10;;;;;;;8.10;4.50;;;;;;;3.02;85.44;95746.34;6153670;23;20217;-78
2023/03/15 16:46:35;;;;;;;7.63;5.60;;;;;;;2.95;84.54;95745.06;6153226;23;20234;-80
2023/03/15 16:49:00;;;;;;;5.70;3.80;;;;;;;2.92;85.37;95741.91;6129227;23;20191;-78
2023/03/15 16:51:26;;;;;;;5.17;4.00;;;;;;;2.86;85.16;95742.28;6129709;23;20178;-81
2023/03/15 16:53:51;;;;;;;5.63;4.10;;;;;;;2.78;85.43;95747.88;6154081;23;20238;-79
2023/03/15 16:56:17;;;;;;;6.27;4.10;;;;;;;2.74;85.34;95760.06;6127707;23;20262;-80
2023/03/15 16:58:43;;;;;;;3.87;2.53;;;;;;;2.62;86.43;95768.50;6128184;23;20166;-80
2023/03/15 17:01:09;;;;;;;4.90;2.30;;;;;;;2.65;86.73;95759.78;6153756;23;20735;-80
2023/03/15 17:03:35;;;;;;;2.90;2.60;;;;;;;2.70;86.87;95765.47;6129071;23;20166;-80
2023/03/15 17:06:00;;;;;;;5.53;2.70;;;;;;;2.64;87.39;95771.78;6128186;23;20183;-80
2023/03/15 17:08:26;;;;;;;4.63;3.13;;;;;;;2.69;86.95;95779.22;6129512;23;20490;-80
2023/03/15 17:10:51;;;;;;;5.83;2.63;;;;;;;2.58;87.28;95779.88;6153106;23;20151;-80
2023/03/15 17:13:23;;;;;;;3.73;2.87;;;;;;;2.66;86.80;95780.22;6129618;23;20187;-80
2023/03/15 17:15:48;;;;;;;8.73;5.03;;;;;;;2.51;86.23;95781.97;6128457;23;20143;-81
2023/03/15 17:18:17;;;;;;;6.13;4.50;;;;;;;2.55;86.54;95777.47;6154481;23;20156;-80
2023/03/15 17:20:43;;;;;;;8.20;3.70;;;;;;;2.53;86.49;95777.56;6129711;23;20237;-80
2023/03/15 17:23:08;;;;;;;8.63;5.00;;;;;;;2.38;87.19;95775.09;6129533;23;20163;-81
2023/03/15 17:25:33;;;;;;;9.10;5.50;;;;;;;2.37;86.97;95778.59;6153310;23;20228;-80
2023/03/15 17:27:59;;;;;;;9.20;6.90;;;;;;;2.24;87.96;95784.47;6154025;23;20182;-79
2023/03/15 17:30:30;;;;;;;8.37;6.60;;;;;;;2.25;87.56;95787.84;6129303;23;20163;-80
2023/03/15 17:32:56;;;;;;;5.43;4.03;;;;;;;2.06;88.80;95780.44;6128873;23;20155;-78
2023/03/15 17:35:27;;;;;;;5.93;3.63;;;;;;;2.13;88.58;95784.28;6128477;23;20155;-80
2023/03/15 17:37:52;;;;;;;7.03;3.90;;;;;;;2.10;89.03;95787.00;6155471;23;20179;-80
2023/03/15 17:40:23;;;;;;;6.83;4.63;;;;;;;2.09;89.01;95794.78;6155267;23;20175;-82
2023/03/15 17:42:50;;;;;;;6.67;3.87;;;;;;;2.07;88.67;95789.75;6154896;23;20155;-79
2023/03/15 17:45:20;;;;;;;3.97;3.33;;;;;;;2.03;89.64;95792.56;6154862;23;20163;-82
2023/03/15 17:47:47;;;;;;;6.83;4.77;;;;;;;1.95;90.42;95788.75;6156001;23;20653;-81
2023/03/15 17:50:12;;;;;;;22.40;13.23;;;;;;;1.97;89.96;95793.78;6157385;23;20179;-80
2023/03/15 17:52:38;;;;;;;18.07;10.73;;;;;;;1.97;89.78;95791.22;6179616;23;20218;-79
2023/03/15 17:55:04;;;;;;;8.30;6.37;;;;;;;1.98;89.70;95793.69;6154496;23;20226;-80
2023/03/15 17:57:29;;;;;;;8.13;6.60;;;;;;;1.92;90.49;95798.31;6155057;23;20182;-82
2023/03/15 17:59:55;;;;;;;7.00;5.57;;;;;;;1.84;90.64;95796.19;6153382;23;20179;-82
2023/03/15 18:02:20;;;;;;;5.97;4.80;;;;;;;1.82;91.30;95797.22;6131826;23;20159;-80